createdAt,value
2023-07-30T00:02:20.003Z,100.00
2023-07-30T00:04:46.948Z,100.00
2023-07-30T00:07:13.784Z,100.00
2023-07-30T00:09:40.517Z,100.00
2023-07-30T00:12:08.406Z,100.00
2023-07-30T00:14:35.504Z,100.00
2023-07-30T00:17:02.597Z,100.00
2023-07-30T00:19:29.271Z,100.00
2023-07-30T00:21:55.966Z,100.00
2023-07-30T00:24:22.598Z,100.00
2023-07-30T00:26:49.280Z,100.00
2023-07-30T00:29:15.966Z,100.00
2023-07-30T00:31:42.929Z,100.00
2023-07-30T00:34:09.663Z,100.00
2023-07-30T00:36:36.492Z,100.00
2023-07-30T00:39:03.308Z,100.00
2023-07-30T00:41:31.229Z,100.00
2023-07-30T00:43:58.545Z,100.00
2023-07-30T00:46:25.524Z,100.00
2023-07-30T00:48:52.403Z,100.00
2023-07-30T00:51:20.221Z,100.00
2023-07-30T00:53:46.975Z,100.00
2023-07-30T00:56:13.739Z,100.00
2023-07-30T00:58:40.904Z,100.00
2023-07-30T01:01:07.620Z,100.00
2023-07-30T01:03:34.254Z,100.00
2023-07-30T01:06:00.910Z,100.00
2023-07-30T01:08:27.885Z,100.00
2023-07-30T01:10:55.609Z,100.00
2023-07-30T01:13:22.658Z,100.00
2023-07-30T01:15:49.667Z,100.00
2023-07-30T01:18:16.324Z,100.00
2023-07-30T01:20:42.955Z,100.00
2023-07-30T01:23:09.668Z,100.00
2023-07-30T01:25:37.977Z,100.00
2023-07-30T01:28:06.470Z,100.00
2023-07-30T01:30:39.832Z,100.00
2023-07-30T01:33:08.086Z,100.00
2023-07-30T01:35:36.394Z,100.00
2023-07-30T01:38:04.862Z,100.00
2023-07-30T01:40:31.549Z,100.00
2023-07-30T01:42:58.443Z,100.00
2023-07-30T01:45:25.094Z,100.00
2023-07-30T01:47:51.902Z,100.00
2023-07-30T01:50:18.576Z,100.00
2023-07-30T01:52:45.203Z,100.00
2023-07-30T01:55:11.889Z,100.00
2023-07-30T01:57:38.595Z,100.00
2023-07-30T02:00:05.899Z,100.00
2023-07-30T02:02:32.677Z,100.00
2023-07-30T02:04:59.340Z,100.00
2023-07-30T02:07:25.999Z,100.00
2023-07-30T02:09:52.634Z,100.00
2023-07-30T02:12:19.318Z,100.00
2023-07-30T02:14:45.987Z,100.00
2023-07-30T02:17:12.611Z,100.00
2023-07-30T02:19:39.231Z,100.00
2023-07-30T02:22:06.018Z,100.00
2023-07-30T02:24:34.109Z,100.00
2023-07-30T02:27:00.822Z,100.00
2023-07-30T02:29:27.490Z,100.00
2023-07-30T02:31:54.259Z,100.00
2023-07-30T02:34:20.978Z,100.00
2023-07-30T02:36:49.984Z,100.00
2023-07-30T02:39:16.615Z,100.00
2023-07-30T02:41:43.240Z,100.00
2023-07-30T02:44:09.883Z,100.00
2023-07-30T02:46:36.587Z,100.00
2023-07-30T02:49:03.223Z,100.00
2023-07-30T02:51:30.073Z,100.00
2023-07-30T02:54:02.732Z,100.00
2023-07-30T02:56:29.489Z,100.00
2023-07-30T02:58:56.153Z,100.00
2023-07-30T03:01:23.682Z,100.00
2023-07-30T03:03:50.435Z,100.00
2023-07-30T03:06:18.142Z,100.00
2023-07-30T03:08:44.946Z,100.00
2023-07-30T03:11:11.574Z,100.00
2023-07-30T03:13:38.215Z,100.00
2023-07-30T03:16:05.984Z,100.00
2023-07-30T03:18:32.669Z,100.00
2023-07-30T03:21:01.237Z,100.00
2023-07-30T03:23:28.731Z,100.00
2023-07-30T03:25:55.421Z,100.00
2023-07-30T03:28:22.216Z,100.00
2023-07-30T03:30:48.937Z,100.00
2023-07-30T03:33:15.709Z,100.00
2023-07-30T03:35:42.381Z,100.00
2023-07-30T03:38:09.038Z,100.00
2023-07-30T03:40:35.678Z,100.00
2023-07-30T03:43:02.308Z,100.00
2023-07-30T03:45:29.877Z,100.00
2023-07-30T03:47:56.595Z,100.00
2023-07-30T03:50:23.247Z,100.00
2023-07-30T03:52:49.875Z,100.00
2023-07-30T03:55:16.634Z,100.00
2023-07-30T03:57:43.288Z,100.00
2023-07-30T04:00:10.231Z,100.00
2023-07-30T04:02:42.755Z,100.00
2023-07-30T04:05:09.492Z,100.00
2023-07-30T04:07:36.968Z,100.00
2023-07-30T04:10:04.952Z,100.00
2023-07-30T04:12:31.693Z,100.00
2023-07-30T04:14:58.337Z,100.00
2023-07-30T04:17:26.245Z,100.00
2023-07-30T04:19:52.915Z,100.00
2023-07-30T04:22:19.582Z,100.00
2023-07-30T04:24:46.977Z,100.00
2023-07-30T04:27:13.606Z,100.00
2023-07-30T04:29:40.640Z,100.00
2023-07-30T04:32:07.965Z,100.00
2023-07-30T04:34:34.618Z,100.00
2023-07-30T04:37:03.125Z,100.00
2023-07-30T04:39:31.314Z,100.00
2023-07-30T04:41:57.999Z,100.00
2023-07-30T04:44:24.835Z,100.00
2023-07-30T04:46:51.521Z,100.00
2023-07-30T04:49:18.210Z,100.00
2023-07-30T04:51:44.965Z,100.00
2023-07-30T04:54:11.910Z,100.00
2023-07-30T04:56:38.763Z,100.00
2023-07-30T04:59:05.409Z,100.00
2023-07-30T05:01:32.498Z,100.00
2023-07-30T05:03:59.228Z,100.00
2023-07-30T05:06:25.922Z,100.00
2023-07-30T05:08:52.639Z,100.00
2023-07-30T05:11:19.330Z,100.00
2023-07-30T05:13:46.209Z,100.00
2023-07-30T05:16:12.879Z,100.00
2023-07-30T05:18:39.567Z,100.00
2023-07-30T05:21:06.232Z,100.00
2023-07-30T05:23:32.887Z,100.00
2023-07-30T05:25:59.535Z,100.00
2023-07-30T05:28:26.962Z,100.00
2023-07-30T05:30:53.645Z,100.00
2023-07-30T05:33:20.327Z,100.00
2023-07-30T05:35:49.070Z,100.00
2023-07-30T05:38:15.777Z,100.00
2023-07-30T05:40:42.844Z,100.00
2023-07-30T05:43:09.481Z,100.00
2023-07-30T05:45:36.513Z,100.00
2023-07-30T05:48:03.349Z,100.00
2023-07-30T05:50:29.994Z,100.00
2023-07-30T05:52:56.609Z,100.00
2023-07-30T05:55:23.296Z,100.00
2023-07-30T05:57:49.943Z,100.00
2023-07-30T06:00:16.631Z,100.00
2023-07-30T06:02:43.327Z,100.00
2023-07-30T06:05:10.114Z,100.00
2023-07-30T06:07:36.817Z,100.00
2023-07-30T06:10:03.869Z,100.00
2023-07-30T06:12:30.483Z,100.00
2023-07-30T06:14:57.115Z,100.00
2023-07-30T06:17:23.877Z,100.00
2023-07-30T06:19:50.558Z,100.00
2023-07-30T06:22:17.225Z,100.00
2023-07-30T06:24:43.862Z,100.00
2023-07-30T06:27:10.952Z,100.00
2023-07-30T06:29:37.805Z,100.00
2023-07-30T06:32:04.747Z,100.00
2023-07-30T06:34:31.441Z,100.00
2023-07-30T06:36:58.052Z,100.00
2023-07-30T06:39:24.725Z,100.00
2023-07-30T06:41:51.465Z,100.00
2023-07-30T06:44:19.123Z,100.00
2023-07-30T06:46:45.804Z,100.00
2023-07-30T06:49:12.434Z,100.00
2023-07-30T06:51:39.264Z,100.00
2023-07-30T06:54:06.382Z,100.00
2023-07-30T06:56:33.020Z,100.00
2023-07-30T06:58:59.655Z,100.00
2023-07-30T07:01:26.356Z,100.00
2023-07-30T07:03:53.079Z,100.00
2023-07-30T07:06:19.777Z,100.00
2023-07-30T07:08:46.964Z,100.00
2023-07-30T07:11:13.653Z,100.00
2023-07-30T07:13:40.297Z,100.00
2023-07-30T07:16:07.323Z,100.00
2023-07-30T07:18:34.024Z,100.00
2023-07-30T07:21:00.783Z,100.00
2023-07-30T07:23:27.455Z,100.00
2023-07-30T07:25:54.112Z,100.00
2023-07-30T07:28:20.768Z,100.00
2023-07-30T07:30:47.698Z,100.00
2023-07-30T07:33:14.579Z,100.00
2023-07-30T07:35:41.624Z,100.00
2023-07-30T07:38:08.588Z,100.00
2023-07-30T07:40:41.279Z,100.00
2023-07-30T07:43:09.349Z,100.00
2023-07-30T07:45:36.069Z,100.00
2023-07-30T07:48:02.898Z,100.00
2023-07-30T07:50:29.557Z,100.00
2023-07-30T07:52:56.241Z,100.00
2023-07-30T07:55:22.882Z,100.00
2023-07-30T07:57:49.552Z,100.00
2023-07-30T08:00:16.225Z,100.00
2023-07-30T08:02:42.917Z,100.00
2023-07-30T08:05:09.909Z,100.00
2023-07-30T08:07:36.608Z,100.00
2023-07-30T08:10:03.407Z,100.00
2023-07-30T08:12:33.535Z,100.00
2023-07-30T08:15:00.202Z,100.00
2023-07-30T08:17:26.906Z,100.00
2023-07-30T08:19:53.544Z,100.00
2023-07-30T08:22:20.163Z,100.00
2023-07-30T08:24:46.826Z,100.00
2023-07-30T08:27:13.480Z,100.00
2023-07-30T08:29:40.161Z,100.00
2023-07-30T08:32:07.178Z,100.00
2023-07-30T08:34:33.921Z,100.00
2023-07-30T08:37:00.631Z,100.00
2023-07-30T08:39:27.380Z,100.00
2023-07-30T08:41:54.057Z,100.00
2023-07-30T08:44:21.260Z,100.00
2023-07-30T08:46:47.948Z,100.00
2023-07-30T08:49:14.617Z,100.00
2023-07-30T08:51:42.716Z,100.00
2023-07-30T08:54:11.247Z,100.00
2023-07-30T08:56:37.937Z,100.00
2023-07-30T08:59:04.918Z,100.00
2023-07-30T09:01:36.396Z,100.00
2023-07-30T09:04:03.562Z,100.00
2023-07-30T09:06:30.287Z,100.00
2023-07-30T09:08:56.978Z,100.00
2023-07-30T09:11:27.740Z,100.00
2023-07-30T09:13:56.069Z,100.00
2023-07-30T09:16:26.126Z,100.00
2023-07-30T09:18:54.724Z,100.00
2023-07-30T09:21:31.066Z,100.00
2023-07-30T09:23:58.257Z,100.00
2023-07-30T09:26:25.211Z,100.00
2023-07-30T09:28:51.921Z,100.00
2023-07-30T09:31:22.676Z,100.00
2023-07-30T09:33:49.863Z,100.00
2023-07-30T09:36:16.908Z,100.00
2023-07-30T09:38:44.124Z,100.00
2023-07-30T09:41:12.941Z,100.00
2023-07-30T09:43:40.507Z,100.00
2023-07-30T09:46:08.197Z,100.00
2023-07-30T09:48:35.839Z,100.00
2023-07-30T09:51:04.243Z,100.00
2023-07-30T09:53:35.841Z,100.00
2023-07-30T09:56:09.712Z,100.00
2023-07-30T09:58:39.181Z,100.00
2023-07-30T10:01:06.401Z,100.00
2023-07-30T10:03:36.262Z,100.00
2023-07-30T10:06:06.381Z,100.00
2023-07-30T10:08:35.769Z,100.00
2023-07-30T10:11:04.764Z,100.00
2023-07-30T10:13:31.995Z,100.00
2023-07-30T10:16:00.176Z,98.20
2023-07-30T10:18:44.120Z,95.01
2023-07-30T10:21:12.229Z,94.42
2023-07-30T10:23:51.567Z,95.28
2023-07-30T10:26:28.202Z,98.06
2023-07-30T10:29:20.315Z,90.86
2023-07-30T10:31:54.137Z,87.61
2023-07-30T10:34:20.834Z,82.41
2023-07-30T10:36:49.308Z,83.93
2023-07-30T10:39:28.268Z,84.20
2023-07-30T10:42:01.796Z,88.67
2023-07-30T10:44:32.665Z,88.49
2023-07-30T10:47:00.991Z,95.91
2023-07-30T10:49:28.154Z,94.05
2023-07-30T10:51:57.092Z,98.44
2023-07-30T10:54:24.285Z,99.66
2023-07-30T10:56:51.090Z,100.00
2023-07-30T10:59:18.930Z,100.00
2023-07-30T11:01:46.280Z,100.00
2023-07-30T11:04:14.261Z,100.00
2023-07-30T11:06:49.937Z,100.00
2023-07-30T11:09:24.337Z,95.89
2023-07-30T11:11:52.100Z,92.27
2023-07-30T11:14:22.933Z,86.60
2023-07-30T11:17:00.252Z,81.37
2023-07-30T11:19:28.143Z,80.71
2023-07-30T11:21:57.758Z,77.83
2023-07-30T11:24:37.914Z,75.84
2023-07-30T11:27:05.146Z,74.96
2023-07-30T11:29:31.884Z,76.48
2023-07-30T11:32:00.250Z,76.04
2023-07-30T11:34:27.745Z,75.73
2023-07-30T11:36:55.268Z,76.51
2023-07-30T11:39:22.180Z,76.86
2023-07-30T11:41:48.844Z,76.40
2023-07-30T11:44:36.547Z,76.50
2023-07-30T11:47:05.167Z,76.00
2023-07-30T11:49:32.122Z,76.56
2023-07-30T11:52:09.749Z,79.38
2023-07-30T11:54:36.881Z,88.94
2023-07-30T11:57:03.616Z,91.35
2023-07-30T11:59:32.108Z,94.13
2023-07-30T12:01:58.996Z,93.53
2023-07-30T12:04:25.973Z,93.75
2023-07-30T12:06:54.653Z,94.51
2023-07-30T12:09:27.010Z,96.14
2023-07-30T12:11:55.296Z,100.00
2023-07-30T12:14:34.418Z,99.17
2023-07-30T12:17:01.698Z,100.00
2023-07-30T12:19:28.809Z,100.00
2023-07-30T12:21:55.503Z,100.00
2023-07-30T12:24:23.539Z,100.00
2023-07-30T12:26:51.864Z,100.00
2023-07-30T12:29:19.695Z,100.00
2023-07-30T12:31:47.117Z,100.00
2023-07-30T12:34:14.077Z,100.00
2023-07-30T12:36:40.795Z,100.00
2023-07-30T12:39:08.562Z,100.00
2023-07-30T12:41:35.240Z,100.00
2023-07-30T12:44:02.076Z,100.00
2023-07-30T12:46:31.215Z,100.00
2023-07-30T12:48:58.092Z,100.00
2023-07-30T12:51:24.750Z,100.00
2023-07-30T12:53:51.436Z,100.00
2023-07-30T12:56:18.101Z,97.68
2023-07-30T12:58:44.724Z,97.31
2023-07-30T13:01:11.410Z,97.26
2023-07-30T13:03:38.300Z,94.80
2023-07-30T13:06:05.020Z,96.10
2023-07-30T13:08:31.834Z,96.45
2023-07-30T13:10:58.505Z,96.00
2023-07-30T13:13:25.194Z,91.23
2023-07-30T13:15:51.843Z,89.73
2023-07-30T13:18:18.481Z,94.27
2023-07-30T13:20:45.127Z,93.24
2023-07-30T13:23:11.802Z,97.45
2023-07-30T13:25:39.083Z,98.91
2023-07-30T13:28:06.051Z,100.00
2023-07-30T13:30:32.773Z,94.29
2023-07-30T13:32:59.483Z,86.98
2023-07-30T13:35:26.256Z,87.78
2023-07-30T13:37:52.916Z,86.08
2023-07-30T13:40:19.566Z,79.42
2023-07-30T13:42:46.223Z,77.87
2023-07-30T13:45:12.848Z,77.83
2023-07-30T13:47:39.691Z,77.25
2023-07-30T13:50:08.162Z,73.23
2023-07-30T13:52:34.879Z,68.03
2023-07-30T13:55:01.525Z,66.17
2023-07-30T13:57:28.178Z,63.20
2023-07-30T13:59:54.974Z,62.48
2023-07-30T14:02:21.850Z,60.44
2023-07-30T14:04:48.587Z,58.58
2023-07-30T14:07:15.297Z,56.08
2023-07-30T14:09:43.511Z,54.51
2023-07-30T14:12:11.723Z,52.01
2023-07-30T14:14:38.351Z,51.59
2023-07-30T14:17:08.045Z,51.28
2023-07-30T14:19:34.963Z,54.08
2023-07-30T14:22:01.977Z,53.70
2023-07-30T14:24:29.114Z,53.89
2023-07-30T14:26:55.942Z,53.78
2023-07-30T14:29:22.574Z,55.64
2023-07-30T14:31:49.211Z,55.42
2023-07-30T14:34:15.867Z,56.37
2023-07-30T14:36:42.722Z,57.59
2023-07-30T14:39:09.521Z,58.03
2023-07-30T14:41:36.480Z,58.46
2023-07-30T14:44:03.399Z,60.68
2023-07-30T14:46:30.487Z,61.19
2023-07-30T14:48:57.173Z,63.04
2023-07-30T14:51:24.178Z,64.25
2023-07-30T14:53:50.791Z,66.02
2023-07-30T14:56:17.420Z,70.65
2023-07-30T14:58:44.020Z,72.99
2023-07-30T15:01:12.585Z,73.85
2023-07-30T15:03:39.476Z,75.18
2023-07-30T15:06:06.152Z,76.97
2023-07-30T15:08:33.493Z,75.71
2023-07-30T15:11:00.209Z,80.08
2023-07-30T15:13:28.614Z,83.09
2023-07-30T15:15:55.402Z,87.38
2023-07-30T15:18:22.187Z,87.32
2023-07-30T15:20:49.611Z,80.98
2023-07-30T15:23:16.445Z,80.45
2023-07-30T15:25:43.087Z,82.22
2023-07-30T15:28:09.770Z,84.01
2023-07-30T15:30:38.490Z,82.21
2023-07-30T15:33:05.218Z,80.17
2023-07-30T15:35:32.311Z,80.57
2023-07-30T15:37:58.966Z,80.35
2023-07-30T15:40:25.634Z,81.74
2023-07-30T15:42:52.438Z,82.65
2023-07-30T15:45:19.403Z,83.75
2023-07-30T15:47:46.405Z,85.61
2023-07-30T15:50:13.177Z,87.63
2023-07-30T15:52:39.804Z,88.44
2023-07-30T15:55:06.748Z,89.64
2023-07-30T15:57:33.400Z,91.92
2023-07-30T16:00:01.228Z,91.08
2023-07-30T16:02:30.181Z,91.86
2023-07-30T16:04:56.950Z,93.57
2023-07-30T16:07:23.564Z,96.50
2023-07-30T16:09:50.210Z,100.00
2023-07-30T16:12:17.081Z,100.00
2023-07-30T16:14:45.297Z,100.00
2023-07-30T16:17:12.038Z,100.00
2023-07-30T16:19:38.712Z,100.00
2023-07-30T16:22:05.581Z,100.00
2023-07-30T16:24:32.260Z,100.00
2023-07-30T16:26:58.915Z,100.00
2023-07-30T16:29:25.548Z,99.67
2023-07-30T16:31:52.201Z,100.00
2023-07-30T16:34:18.863Z,100.00
2023-07-30T16:36:45.527Z,100.00
2023-07-30T16:39:13.536Z,100.00
2023-07-30T16:41:41.156Z,100.00
2023-07-30T16:44:08.026Z,100.00
2023-07-30T16:46:34.851Z,100.00
2023-07-30T16:49:01.578Z,100.00
2023-07-30T16:51:28.250Z,100.00
2023-07-30T16:53:54.974Z,100.00
2023-07-30T16:56:21.588Z,100.00
2023-07-30T16:58:48.402Z,100.00
2023-07-30T17:01:15.243Z,100.00
2023-07-30T17:03:42.329Z,100.00
2023-07-30T17:06:09.033Z,100.00
2023-07-30T17:08:36.768Z,100.00
2023-07-30T17:11:07.439Z,100.00
2023-07-30T17:13:35.238Z,100.00
2023-07-30T17:16:12.458Z,100.00
2023-07-30T17:18:39.594Z,100.00
2023-07-30T17:21:06.558Z,100.00
2023-07-30T17:23:33.282Z,100.00
2023-07-30T17:26:00.613Z,100.00
2023-07-30T17:28:29.808Z,100.00
2023-07-30T17:30:57.155Z,95.68
2023-07-30T17:33:24.121Z,90.09
2023-07-30T17:35:50.925Z,89.44
2023-07-30T17:38:17.922Z,86.13
2023-07-30T17:40:52.042Z,84.53
2023-07-30T17:43:18.819Z,85.08
2023-07-30T17:45:45.450Z,82.17
2023-07-30T17:48:12.164Z,81.74
2023-07-30T17:50:40.377Z,81.20
2023-07-30T17:53:07.347Z,79.84
2023-07-30T17:55:34.112Z,79.42
2023-07-30T17:58:00.779Z,79.01
2023-07-30T18:00:29.160Z,78.94
2023-07-30T18:02:55.965Z,79.12
2023-07-30T18:07:52.857Z,80.97
2023-07-30T18:10:20.380Z,81.68
2023-07-30T18:12:47.168Z,81.38
2023-07-30T18:15:13.952Z,81.97
2023-07-30T18:17:40.690Z,82.76
2023-07-30T18:20:08.054Z,83.47
2023-07-30T18:22:34.731Z,84.19
2023-07-30T18:25:01.422Z,85.86
2023-07-30T18:27:28.061Z,85.24
2023-07-30T18:29:54.732Z,85.78
2023-07-30T18:32:21.441Z,86.31
2023-07-30T18:34:48.162Z,87.37
2023-07-30T18:37:14.891Z,87.81
2023-07-30T18:39:41.629Z,88.21
2023-07-30T18:42:09.130Z,89.76
2023-07-30T18:44:35.986Z,90.25
2023-07-30T18:47:02.711Z,91.20
2023-07-30T18:49:29.571Z,92.80
2023-07-30T18:51:56.218Z,92.61
2023-07-30T18:54:23.016Z,93.35
2023-07-30T18:56:50.497Z,94.04
2023-07-30T18:59:17.517Z,94.66
2023-07-30T19:01:44.185Z,95.32
2023-07-30T19:04:10.948Z,95.90
2023-07-30T19:06:37.973Z,96.53
2023-07-30T19:09:04.838Z,96.67
2023-07-30T19:11:31.533Z,96.93
2023-07-30T19:13:58.954Z,97.94
2023-07-30T19:16:25.933Z,98.52
2023-07-30T19:18:52.704Z,99.78
2023-07-30T19:21:19.343Z,100.00
2023-07-30T19:23:46.003Z,100.00
2023-07-30T19:26:12.666Z,100.00
2023-07-30T19:28:39.429Z,100.00
2023-07-30T19:31:08.336Z,100.00
2023-07-30T19:33:38.077Z,100.00
2023-07-30T19:36:04.898Z,100.00
2023-07-30T19:38:31.582Z,100.00
2023-07-30T19:40:58.275Z,100.00
2023-07-30T19:43:25.178Z,100.00
2023-07-30T19:45:53.026Z,100.00
2023-07-30T19:48:23.637Z,100.00
2023-07-30T19:50:51.599Z,100.00
2023-07-30T19:53:18.824Z,100.00
2023-07-30T19:55:46.172Z,100.00
2023-07-30T19:58:33.093Z,100.00
2023-07-30T20:01:01.511Z,100.00
2023-07-30T20:03:29.510Z,100.00
2023-07-30T20:06:00.869Z,100.00
2023-07-30T20:08:27.881Z,100.00
2023-07-30T20:10:55.017Z,100.00
2023-07-30T20:13:22.626Z,100.00
2023-07-30T20:15:50.253Z,100.00
2023-07-30T20:18:17.505Z,100.00
2023-07-30T20:20:44.280Z,100.00
2023-07-30T20:23:11.274Z,100.00
2023-07-30T20:25:39.735Z,100.00
2023-07-30T20:28:08.083Z,100.00
2023-07-30T20:30:37.909Z,100.00
2023-07-30T20:33:05.574Z,100.00
2023-07-30T20:35:32.320Z,100.00
2023-07-30T20:37:59.895Z,100.00
2023-07-30T20:40:27.672Z,100.00
2023-07-30T20:42:55.014Z,100.00
2023-07-30T20:45:22.995Z,100.00
2023-07-30T20:47:50.678Z,100.00
2023-07-30T20:50:17.672Z,100.00
2023-07-30T20:52:45.307Z,100.00
2023-07-30T20:55:13.184Z,100.00
2023-07-30T20:57:40.758Z,100.00
2023-07-30T21:00:09.027Z,100.00
2023-07-30T21:02:36.861Z,100.00
2023-07-30T21:05:04.926Z,100.00
2023-07-30T21:07:31.636Z,100.00
2023-07-30T21:09:58.292Z,100.00
2023-07-30T21:12:25.021Z,100.00
2023-07-30T21:14:51.699Z,100.00
2023-07-30T21:17:19.603Z,100.00
2023-07-30T21:19:46.810Z,100.00
2023-07-30T21:22:13.460Z,100.00
2023-07-30T21:24:40.094Z,100.00
2023-07-30T21:27:07.280Z,100.00
2023-07-30T21:29:34.039Z,100.00
2023-07-30T21:32:01.045Z,100.00
2023-07-30T21:34:27.785Z,100.00
2023-07-30T21:36:54.406Z,100.00
2023-07-30T21:39:21.052Z,100.00
2023-07-30T21:41:47.680Z,100.00
2023-07-30T21:44:14.301Z,100.00
2023-07-30T21:46:41.324Z,100.00
2023-07-30T21:49:08.228Z,100.00
2023-07-30T21:51:35.105Z,100.00
2023-07-30T21:54:01.746Z,100.00
2023-07-30T21:56:28.401Z,100.00
2023-07-30T21:58:55.021Z,100.00
2023-07-30T22:01:21.698Z,100.00
2023-07-30T22:03:48.337Z,100.00
2023-07-30T22:06:15.026Z,100.00
2023-07-30T22:08:42.042Z,100.00
2023-07-30T22:11:08.718Z,100.00
2023-07-30T22:13:35.359Z,100.00
2023-07-30T22:16:01.965Z,100.00
2023-07-30T22:18:28.621Z,100.00
2023-07-30T22:20:55.276Z,100.00
2023-07-30T22:23:21.926Z,100.00
2023-07-30T22:25:48.577Z,100.00
2023-07-30T22:28:15.289Z,100.00
2023-07-30T22:30:42.121Z,100.00
2023-07-30T22:33:09.040Z,100.00
2023-07-30T22:35:36.080Z,100.00
2023-07-30T22:38:03.193Z,100.00
2023-07-30T22:40:30.681Z,100.00
2023-07-30T22:42:57.555Z,100.00
2023-07-30T22:45:24.264Z,100.00
2023-07-30T22:47:50.930Z,100.00
2023-07-30T22:50:17.632Z,100.00
2023-07-30T22:52:44.264Z,100.00
2023-07-30T22:55:10.918Z,100.00
2023-07-30T22:57:37.582Z,100.00
2023-07-30T23:00:05.774Z,100.00
2023-07-30T23:02:33.102Z,100.00
2023-07-30T23:04:59.896Z,100.00
2023-07-30T23:07:26.550Z,100.00
2023-07-30T23:09:53.211Z,100.00
2023-07-30T23:12:19.852Z,100.00
2023-07-30T23:14:46.519Z,100.00
2023-07-30T23:17:13.220Z,100.00
2023-07-30T23:19:39.877Z,100.00
2023-07-30T23:22:06.674Z,100.00
2023-07-30T23:24:34.429Z,100.00
2023-07-30T23:27:01.067Z,100.00
2023-07-30T23:29:27.753Z,100.00
2023-07-30T23:31:54.581Z,100.00
2023-07-30T23:34:21.330Z,100.00
2023-07-30T23:36:47.985Z,100.00
2023-07-30T23:39:14.739Z,100.00
2023-07-30T23:41:41.438Z,100.00
2023-07-30T23:44:08.066Z,100.00
2023-07-30T23:46:34.720Z,100.00
2023-07-30T23:49:01.395Z,100.00
2023-07-30T23:51:29.171Z,100.00
2023-07-30T23:53:57.200Z,100.00
2023-07-30T23:56:23.915Z,100.00
2023-07-30T23:58:50.581Z,100.00
